createdAt,value
2022-08-04T00:02:25.411Z,63.83
2022-08-04T00:05:03.410Z,63.75
2022-08-04T00:07:43.897Z,63.86
2022-08-04T00:10:13.874Z,64.07
2022-08-04T00:12:43.493Z,63.86
2022-08-04T00:15:14.983Z,63.91
2022-08-04T00:18:01.037Z,63.71
2022-08-04T00:20:32.266Z,64.60
2022-08-04T00:23:00.350Z,64.05
2022-08-04T00:25:27.669Z,64.12
2022-08-04T00:27:55.263Z,64.06
2022-08-04T00:30:22.215Z,64.00
2022-08-04T00:32:49.941Z,64.87
2022-08-04T00:35:17.086Z,64.25
2022-08-04T00:37:45.412Z,64.77
2022-08-04T00:40:18.016Z,65.38
2022-08-04T00:43:12.099Z,64.47
2022-08-04T00:46:10.754Z,66.04
2022-08-04T00:48:27.969Z,66.42
2022-08-04T00:51:16.304Z,66.40
2022-08-04T00:54:11.557Z,65.53
2022-08-04T00:56:55.371Z,65.59
2022-08-04T00:59:43.108Z,65.11
2022-08-04T01:02:21.915Z,65.51
2022-08-04T01:04:58.430Z,66.28
2022-08-04T01:07:53.414Z,66.02
2022-08-04T01:10:24.958Z,65.76
2022-08-04T01:13:26.378Z,66.51
2022-08-04T01:16:11.373Z,66.04
2022-08-04T01:18:56.020Z,66.06
2022-08-04T01:21:41.345Z,66.73
2022-08-04T01:24:10.733Z,65.86
2022-08-04T01:27:06.055Z,66.19
2022-08-04T01:29:48.769Z,65.62
2022-08-04T01:32:15.366Z,65.72
2022-08-04T01:34:47.424Z,66.23
2022-08-04T01:37:32.541Z,66.80
2022-08-04T01:40:06.458Z,66.83
2022-08-04T01:42:35.063Z,67.85
2022-08-04T01:45:10.435Z,67.11
2022-08-04T01:47:40.354Z,67.63
2022-08-04T01:50:13.000Z,67.09
2022-08-04T01:52:46.520Z,67.52
2022-08-04T01:55:18.285Z,67.40
2022-08-04T01:57:52.480Z,67.63
2022-08-04T02:00:26.747Z,68.16
2022-08-04T02:02:54.423Z,67.19
2022-08-04T02:05:22.968Z,67.22
2022-08-04T02:07:55.377Z,67.75
2022-08-04T02:10:42.081Z,67.57
2022-08-04T02:13:24.729Z,67.17
2022-08-04T02:16:18.823Z,68.06
2022-08-04T02:19:22.718Z,67.48
2022-08-04T02:21:57.183Z,68.14
2022-08-04T02:24:27.747Z,68.68
2022-08-04T02:26:57.300Z,69.29
2022-08-04T02:29:45.576Z,69.41
2022-08-04T02:32:22.065Z,69.67
2022-08-04T02:35:07.812Z,69.23
2022-08-04T02:37:35.459Z,69.24
2022-08-04T02:40:05.301Z,69.17
2022-08-04T02:42:33.500Z,68.62
2022-08-04T02:45:00.895Z,69.15
2022-08-04T02:48:29.356Z,69.25
2022-08-04T02:50:28.708Z,69.79
2022-08-04T02:52:58.343Z,70.81
2022-08-04T02:55:27.446Z,70.42
2022-08-04T02:57:55.293Z,70.40
2022-08-04T03:00:22.734Z,70.10
2022-08-04T03:03:16.725Z,69.23
2022-08-04T03:06:11.572Z,69.40
2022-08-04T03:09:18.137Z,69.83
2022-08-04T03:12:26.621Z,69.67
2022-08-04T03:15:09.632Z,70.46
2022-08-04T03:17:57.515Z,70.35
2022-08-04T03:20:33.131Z,70.84
2022-08-04T03:23:14.052Z,70.93
2022-08-04T03:26:02.282Z,70.29
2022-08-04T03:28:50.859Z,70.69
2022-08-04T03:31:35.592Z,71.08
2022-08-04T03:34:23.705Z,70.73
2022-08-04T03:37:05.418Z,72.03
2022-08-04T03:39:40.618Z,71.74
2022-08-04T03:42:12.108Z,71.27
2022-08-04T03:45:23.087Z,71.53
2022-08-04T03:48:37.977Z,71.85
2022-08-04T03:51:45.341Z,71.96
2022-08-04T03:54:49.934Z,71.68
2022-08-04T03:57:36.398Z,71.72
2022-08-04T04:00:28.551Z,71.92
2022-08-04T04:03:23.553Z,72.29
2022-08-04T04:06:30.923Z,71.64
2022-08-04T04:09:56.916Z,71.99
2022-08-04T04:12:34.234Z,72.34
2022-08-04T04:15:21.960Z,72.33
2022-08-04T04:18:02.818Z,72.71
2022-08-04T04:20:48.561Z,72.73
2022-08-04T04:23:36.620Z,73.19
2022-08-04T04:26:22.039Z,72.86
2022-08-04T04:29:03.420Z,73.15
2022-08-04T04:31:38.464Z,72.44
2022-08-04T04:34:41.760Z,72.74
2022-08-04T04:37:31.340Z,72.77
2022-08-04T04:40:16.036Z,72.26
2022-08-04T04:43:09.676Z,72.82
2022-08-04T04:46:31.170Z,72.97
2022-08-04T04:49:32.072Z,72.21
2022-08-04T04:52:07.580Z,73.07
2022-08-04T04:55:00.243Z,72.97
2022-08-04T04:57:53.118Z,72.90
2022-08-04T05:00:18.515Z,73.37
2022-08-04T05:03:24.708Z,72.33
2022-08-04T05:05:51.062Z,72.89
2022-08-04T05:08:43.079Z,72.88
2022-08-04T05:11:15.032Z,72.65
2022-08-04T05:14:38.143Z,72.29
2022-08-04T05:17:03.028Z,72.54
2022-08-04T05:19:38.368Z,72.91
2022-08-04T05:22:14.801Z,72.29
2022-08-04T05:24:44.561Z,72.33
2022-08-04T05:27:28.520Z,72.11
2022-08-04T05:29:59.197Z,72.15
2022-08-04T05:32:32.862Z,72.15
2022-08-04T05:35:05.150Z,72.81
2022-08-04T05:37:34.873Z,72.92
2022-08-04T05:40:05.841Z,73.66
2022-08-04T05:42:35.893Z,73.92
2022-08-04T05:45:03.550Z,73.83
2022-08-04T05:47:32.369Z,72.74
2022-08-04T05:50:03.209Z,73.03
2022-08-04T05:52:31.517Z,73.72
2022-08-04T05:55:00.370Z,73.51
2022-08-04T05:57:27.614Z,73.03
2022-08-04T05:59:57.113Z,73.15
2022-08-04T06:02:24.541Z,73.25
2022-08-04T06:04:53.251Z,72.64
2022-08-04T06:07:20.325Z,72.51
2022-08-04T06:09:47.349Z,72.60
2022-08-04T06:12:32.580Z,72.36
2022-08-04T06:15:01.477Z,72.68
2022-08-04T06:19:58.440Z,71.69
2022-08-04T06:20:34.756Z,72.09
2022-08-04T06:23:04.464Z,72.52
2022-08-04T06:25:39.407Z,71.80
2022-08-04T06:28:07.700Z,71.77
2022-08-04T06:30:37.075Z,71.37
2022-08-04T06:33:13.776Z,72.00
2022-08-04T06:35:41.130Z,71.15
2022-08-04T06:38:09.421Z,71.51
2022-08-04T06:40:36.306Z,71.27
2022-08-04T06:43:07.726Z,70.84
2022-08-04T06:45:36.986Z,70.41
2022-08-04T06:48:06.171Z,68.98
2022-08-04T06:51:27.183Z,69.12
2022-08-04T06:53:21.813Z,68.58
2022-08-04T06:55:50.139Z,68.64
2022-08-04T06:58:19.255Z,68.60
2022-08-04T07:00:48.073Z,68.72
2022-08-04T07:03:16.966Z,68.90
2022-08-04T07:05:46.128Z,69.57
2022-08-04T07:08:13.457Z,70.31
2022-08-04T07:10:40.690Z,69.90
2022-08-04T07:13:09.354Z,69.74
2022-08-04T07:15:38.945Z,69.63
2022-08-04T07:18:05.589Z,69.31
2022-08-04T07:20:35.355Z,68.52
2022-08-04T07:23:07.556Z,69.48
2022-08-04T07:26:11.433Z,69.11
2022-08-04T07:28:28.624Z,68.91
2022-08-04T07:30:56.755Z,68.35
2022-08-04T07:33:24.562Z,69.33
2022-08-04T07:36:09.480Z,69.38
2022-08-04T07:38:48.177Z,69.49
2022-08-04T07:41:37.750Z,69.27
2022-08-04T07:44:05.154Z,68.79
2022-08-04T07:46:31.891Z,69.62
2022-08-04T07:49:00.892Z,69.40
2022-08-04T07:51:28.771Z,69.92
2022-08-04T07:53:57.120Z,69.90
2022-08-04T07:56:25.271Z,69.66
2022-08-04T07:58:51.681Z,69.45
2022-08-04T08:01:19.478Z,69.08
2022-08-04T08:03:48.040Z,69.51
2022-08-04T08:06:30.878Z,68.79
2022-08-04T08:09:00.932Z,69.00
2022-08-04T08:12:37.696Z,68.75
2022-08-04T08:14:25.646Z,69.30
2022-08-04T08:16:52.263Z,69.68
2022-08-04T08:19:18.800Z,69.47
2022-08-04T08:21:59.696Z,69.21
2022-08-04T08:24:27.978Z,68.71
2022-08-04T08:26:55.886Z,69.28
2022-08-04T08:29:22.689Z,68.45
2022-08-04T08:31:58.419Z,68.03
2022-08-04T08:34:28.873Z,67.56
2022-08-04T08:37:14.985Z,67.54
2022-08-04T08:39:53.467Z,67.41
2022-08-04T08:42:55.701Z,67.28
2022-08-04T08:45:22.040Z,65.84
2022-08-04T08:48:21.491Z,65.18
2022-08-04T08:50:56.875Z,64.17
2022-08-04T08:53:49.389Z,64.02
2022-08-04T08:56:39.530Z,63.87
2022-08-04T08:59:30.168Z,63.92
2022-08-04T09:02:15.137Z,62.32
2022-08-04T09:05:00.080Z,62.80
2022-08-04T09:07:41.793Z,61.09
2022-08-04T09:10:27.804Z,60.45
2022-08-04T09:13:40.160Z,59.97
2022-08-04T09:16:42.929Z,61.19
2022-08-04T09:19:17.674Z,60.29
2022-08-04T09:22:27.336Z,59.44
2022-08-04T09:25:13.528Z,61.01
2022-08-04T09:27:57.529Z,60.06
2022-08-04T09:30:45.762Z,59.54
2022-08-04T09:33:20.228Z,59.97
2022-08-04T09:35:57.089Z,59.54
2022-08-04T09:38:38.417Z,59.61
2022-08-04T09:41:48.774Z,58.26
2022-08-04T09:44:50.860Z,58.24
2022-08-04T09:47:26.207Z,56.21
2022-08-04T09:50:24.327Z,57.84
2022-08-04T09:53:22.879Z,57.15
2022-08-04T09:56:09.750Z,56.36
2022-08-04T09:59:01.107Z,56.71
2022-08-04T10:01:30.514Z,56.66
2022-08-04T10:04:01.264Z,56.46
2022-08-04T10:06:42.921Z,56.32
2022-08-04T10:09:34.407Z,56.86
2022-08-04T10:12:17.760Z,55.79
2022-08-04T10:14:58.243Z,56.51
2022-08-04T10:17:51.962Z,56.71
2022-08-04T10:20:52.904Z,57.16
2022-08-04T10:23:56.033Z,57.90
2022-08-04T10:26:31.015Z,57.52
2022-08-04T10:29:09.791Z,57.39
2022-08-04T10:31:46.195Z,57.45
2022-08-04T10:34:17.642Z,57.06
2022-08-04T10:37:20.319Z,56.52
2022-08-04T10:40:17.671Z,56.14
2022-08-04T10:43:20.851Z,56.14
2022-08-04T10:45:57.945Z,56.20
2022-08-04T10:48:46.494Z,56.52
2022-08-04T10:51:58.029Z,55.45
2022-08-04T10:54:45.297Z,55.38
2022-08-04T10:57:20.294Z,55.30
2022-08-04T11:02:54.761Z,56.01
2022-08-04T11:05:31.289Z,56.23
2022-08-04T11:08:08.752Z,55.51
2022-08-04T11:10:45.497Z,55.32
2022-08-04T11:13:22.133Z,55.76
2022-08-04T11:15:59.003Z,55.66
2022-08-04T11:18:31.517Z,54.92
2022-08-04T11:21:25.454Z,54.80
2022-08-04T11:24:01.708Z,55.34
2022-08-04T11:26:45.853Z,55.43
2022-08-04T11:29:22.501Z,54.20
2022-08-04T11:31:52.015Z,52.91
2022-08-04T11:34:24.882Z,53.50
2022-08-04T11:37:14.991Z,53.61
2022-08-04T11:40:01.997Z,54.49
2022-08-04T11:42:36.259Z,52.33
2022-08-04T11:45:07.963Z,52.23
2022-08-04T11:47:57.998Z,52.16
2022-08-04T11:50:33.788Z,51.27
2022-08-04T11:53:02.365Z,51.15
2022-08-04T11:55:31.709Z,51.56
2022-08-04T11:57:58.456Z,51.36
2022-08-04T12:00:29.629Z,52.08
2022-08-04T12:02:58.953Z,51.50
2022-08-04T12:05:36.790Z,51.61
2022-08-04T12:08:04.024Z,50.70
2022-08-04T12:10:47.276Z,50.91
2022-08-04T12:13:24.656Z,49.90
2022-08-04T12:16:15.655Z,49.79
2022-08-04T12:18:57.509Z,50.33
2022-08-04T12:21:39.445Z,49.25
2022-08-04T12:24:22.472Z,49.43
2022-08-04T12:26:56.536Z,47.21
2022-08-04T12:29:25.880Z,46.50
2022-08-04T12:32:00.669Z,47.09
2022-08-04T12:34:35.008Z,47.10
2022-08-04T12:37:22.098Z,47.43
2022-08-04T12:40:21.667Z,47.72
2022-08-04T12:42:56.127Z,47.41
2022-08-04T12:45:26.984Z,47.84
2022-08-04T12:47:56.953Z,48.20
2022-08-04T12:50:24.206Z,47.17
2022-08-04T12:53:02.761Z,47.54
2022-08-04T12:55:33.560Z,47.23
2022-08-04T12:58:02.718Z,47.89
2022-08-04T13:00:40.700Z,47.27
2022-08-04T13:03:15.583Z,48.04
2022-08-04T13:05:43.176Z,47.49
2022-08-04T13:08:11.361Z,47.31
2022-08-04T13:10:41.169Z,48.10
2022-08-04T13:13:15.394Z,47.22
2022-08-04T13:15:46.974Z,47.51
2022-08-04T13:18:28.920Z,47.81
2022-08-04T13:21:19.951Z,47.89
2022-08-04T13:24:09.382Z,47.18
2022-08-04T13:26:44.666Z,46.66
2022-08-04T13:29:23.831Z,47.92
2022-08-04T13:32:10.959Z,47.99
2022-08-04T13:34:41.166Z,48.44
2022-08-04T13:37:20.934Z,47.04
2022-08-04T13:39:55.999Z,47.24
2022-08-04T13:42:25.660Z,46.73
2022-08-04T13:44:56.610Z,47.01
2022-08-04T13:47:28.708Z,46.72
2022-08-04T13:50:16.082Z,47.69
2022-08-04T13:52:44.118Z,46.98
2022-08-04T13:55:25.419Z,47.33
2022-08-04T13:57:59.442Z,47.52
2022-08-04T14:00:40.408Z,47.05
2022-08-04T14:03:18.984Z,46.58
2022-08-04T14:06:29.238Z,46.84
2022-08-04T14:08:58.726Z,46.30
2022-08-04T14:12:09.845Z,46.30
2022-08-04T14:14:33.657Z,47.46
2022-08-04T14:17:01.531Z,45.72
2022-08-04T14:19:49.046Z,45.66
2022-08-04T14:22:29.015Z,45.01
2022-08-04T14:25:15.817Z,44.86
2022-08-04T14:27:47.466Z,44.07
2022-08-04T14:30:28.450Z,45.02
2022-08-04T14:34:01.313Z,45.75
2022-08-04T14:36:04.347Z,45.54
2022-08-04T14:38:58.445Z,45.21
2022-08-04T14:41:44.902Z,45.28
2022-08-04T14:44:11.398Z,44.73
2022-08-04T14:46:54.455Z,45.75
2022-08-04T14:49:22.428Z,45.71
2022-08-04T14:51:58.425Z,44.30
2022-08-04T14:54:30.500Z,44.05
2022-08-04T14:57:01.315Z,44.29
2022-08-04T14:59:27.919Z,44.50
2022-08-04T15:02:00.255Z,45.06
2022-08-04T15:04:31.235Z,44.54
2022-08-04T15:06:59.012Z,44.12
2022-08-04T15:09:25.630Z,44.82
2022-08-04T15:11:52.329Z,44.69
2022-08-04T15:14:37.604Z,45.33
2022-08-04T15:17:11.500Z,45.15
2022-08-04T15:19:40.110Z,45.64
2022-08-04T15:22:07.059Z,45.98
2022-08-04T15:24:43.856Z,46.24
2022-08-04T15:27:12.155Z,46.51
2022-08-04T15:30:00.689Z,46.74
2022-08-04T15:32:32.222Z,45.99
2022-08-04T15:35:06.561Z,46.93
2022-08-04T15:37:55.409Z,46.41
2022-08-04T15:40:33.563Z,46.42
2022-08-04T15:43:18.348Z,45.58
2022-08-04T15:46:33.162Z,46.16
2022-08-04T15:48:39.229Z,46.83
2022-08-04T15:51:15.440Z,44.98
2022-08-04T15:54:03.688Z,45.69
2022-08-04T15:56:29.950Z,45.22
2022-08-04T15:58:57.557Z,45.55
2022-08-04T16:01:24.955Z,46.14
2022-08-04T16:03:57.994Z,46.54
2022-08-04T16:06:29.680Z,46.84
2022-08-04T16:09:05.137Z,46.01
2022-08-04T16:11:39.963Z,45.63
2022-08-04T16:14:07.596Z,46.02
2022-08-04T16:16:36.844Z,46.42
2022-08-04T16:19:08.323Z,46.37
2022-08-04T16:21:48.682Z,46.75
2022-08-04T16:24:28.907Z,47.50
2022-08-04T16:26:57.769Z,47.62
2022-08-04T16:29:25.148Z,46.87
2022-08-04T16:32:13.787Z,46.86
2022-08-04T16:34:59.587Z,46.98
2022-08-04T16:37:30.418Z,46.89
2022-08-04T16:40:28.493Z,48.01
2022-08-04T16:43:15.516Z,47.51
2022-08-04T16:45:50.369Z,47.88
2022-08-04T16:48:20.050Z,47.77
2022-08-04T16:50:52.378Z,47.80
2022-08-04T16:53:52.971Z,47.72
2022-08-04T16:56:07.056Z,47.73
2022-08-04T16:58:35.635Z,48.33
2022-08-04T17:01:11.811Z,48.11
2022-08-04T17:04:04.578Z,48.26
2022-08-04T17:06:35.963Z,47.91
2022-08-04T17:09:19.010Z,48.73
2022-08-04T17:11:47.310Z,48.57
2022-08-04T17:14:23.623Z,48.66
2022-08-04T17:16:51.554Z,47.74
2022-08-04T17:19:23.667Z,48.04
2022-08-04T17:22:00.399Z,48.37
2022-08-04T17:24:29.226Z,48.40
2022-08-04T17:26:55.733Z,48.28
2022-08-04T17:29:42.862Z,48.56
2022-08-04T17:32:22.098Z,48.42
2022-08-04T17:34:51.246Z,48.79
2022-08-04T17:37:40.182Z,48.70
2022-08-04T17:40:18.664Z,48.82
2022-08-04T17:44:05.193Z,48.79
2022-08-04T17:46:29.648Z,48.89
2022-08-04T17:49:07.524Z,49.44
2022-08-04T17:52:01.861Z,49.39
2022-08-04T17:54:37.374Z,48.53
2022-08-04T17:57:15.817Z,49.21
2022-08-04T17:59:58.039Z,49.38
2022-08-04T18:02:32.684Z,49.35
2022-08-04T18:05:05.646Z,49.37
2022-08-04T18:08:45.870Z,50.01
2022-08-04T18:10:56.770Z,50.03
2022-08-04T18:13:26.020Z,50.65
2022-08-04T18:16:14.340Z,50.34
2022-08-04T18:19:11.718Z,49.91
2022-08-04T18:21:46.109Z,50.43
2022-08-04T18:24:34.004Z,50.65
2022-08-04T18:27:11.270Z,50.49
2022-08-04T18:29:41.247Z,50.15
2022-08-04T18:32:33.359Z,50.32
2022-08-04T18:35:05.626Z,50.70
2022-08-04T18:38:06.354Z,50.77
2022-08-04T18:40:27.933Z,51.43
2022-08-04T18:42:58.059Z,51.62
2022-08-04T18:45:34.719Z,51.40
2022-08-04T18:51:22.382Z,52.25
2022-08-04T18:53:36.880Z,52.64
2022-08-04T18:56:15.235Z,53.00
2022-08-04T18:58:53.075Z,53.37
2022-08-04T19:01:19.884Z,53.42
2022-08-04T19:03:49.394Z,53.75
2022-08-04T19:06:25.759Z,53.69
2022-08-04T19:08:52.606Z,53.75
2022-08-04T19:11:38.307Z,53.96
2022-08-04T19:16:58.601Z,54.28
2022-08-04T19:19:47.926Z,54.89
2022-08-04T19:22:36.184Z,55.17
2022-08-04T19:25:02.623Z,55.29
2022-08-04T19:27:40.781Z,55.44
2022-08-04T19:30:08.194Z,55.55
2022-08-04T19:32:38.131Z,56.20
2022-08-04T19:35:04.938Z,56.28
2022-08-04T19:37:56.745Z,56.18
2022-08-04T19:40:33.436Z,56.88
2022-08-04T19:43:10.515Z,56.67
2022-08-04T19:45:44.774Z,57.54
2022-08-04T19:48:18.736Z,57.95
2022-08-04T19:50:46.448Z,57.51
2022-08-04T19:53:19.284Z,58.17
2022-08-04T19:55:50.443Z,57.94
2022-08-04T19:58:17.981Z,58.29
2022-08-04T20:00:44.825Z,58.53
2022-08-04T20:03:20.070Z,58.88
2022-08-04T20:05:53.906Z,59.35
2022-08-04T20:08:24.260Z,59.84
2022-08-04T20:10:54.831Z,61.11
2022-08-04T20:13:22.077Z,62.54
2022-08-04T20:15:57.932Z,62.20
2022-08-04T20:18:36.477Z,62.17
2022-08-04T20:21:22.657Z,63.13
2022-08-04T20:24:38.205Z,63.73
2022-08-04T20:26:49.638Z,63.51
2022-08-04T20:29:40.427Z,64.53
2022-08-04T20:32:05.503Z,64.77
2022-08-04T20:34:35.008Z,65.53
2022-08-04T20:37:01.429Z,65.16
2022-08-04T20:39:27.886Z,64.89
2022-08-04T20:41:54.355Z,64.94
2022-08-04T20:44:22.286Z,64.75
2022-08-04T20:46:50.880Z,64.35
2022-08-04T20:49:17.421Z,64.01
2022-08-04T20:51:44.106Z,64.51
2022-08-04T20:54:16.472Z,64.83
2022-08-04T20:56:50.616Z,65.23
2022-08-04T20:59:18.275Z,65.27
2022-08-04T21:01:45.298Z,65.18
2022-08-04T21:04:34.178Z,65.40
2022-08-04T21:07:02.578Z,64.90
2022-08-04T21:09:38.479Z,65.02
2022-08-04T21:12:10.379Z,64.96
2022-08-04T21:14:37.076Z,65.39
2022-08-04T21:17:03.917Z,65.62
2022-08-04T21:19:33.539Z,66.48
2022-08-04T21:22:04.752Z,65.64
2022-08-04T21:24:31.152Z,65.53
2022-08-04T21:26:58.068Z,66.08
2022-08-04T21:29:29.582Z,66.21
2022-08-04T21:32:05.898Z,66.07
2022-08-04T21:34:38.979Z,66.14
2022-08-04T21:37:06.991Z,65.96
2022-08-04T21:39:43.944Z,65.58
2022-08-04T21:42:27.888Z,65.87
2022-08-04T21:44:56.542Z,66.19
2022-08-04T21:47:46.780Z,66.79
2022-08-04T21:50:09.631Z,66.08
2022-08-04T21:52:36.080Z,66.67
2022-08-04T21:55:02.794Z,66.45
2022-08-04T21:57:30.048Z,66.44
2022-08-04T21:59:58.694Z,66.40
2022-08-04T22:02:26.491Z,66.41
2022-08-04T22:04:54.000Z,66.34
2022-08-04T22:07:22.974Z,66.40
2022-08-04T22:10:02.458Z,66.69
2022-08-04T22:12:30.214Z,67.06
2022-08-04T22:14:59.544Z,66.99
2022-08-04T22:17:35.324Z,67.08
2022-08-04T22:20:02.523Z,67.09
2022-08-04T22:22:29.985Z,67.17
2022-08-04T22:25:02.085Z,67.10
2022-08-04T22:27:57.766Z,67.07
2022-08-04T22:30:32.901Z,66.49
2022-08-04T22:33:00.349Z,67.38
2022-08-04T22:35:35.419Z,66.93
2022-08-04T22:38:24.100Z,67.16
2022-08-04T22:41:03.070Z,67.03
2022-08-04T22:43:32.912Z,66.72
2022-08-04T22:46:05.399Z,66.78
2022-08-04T22:48:34.978Z,66.97
2022-08-04T22:51:02.633Z,67.13
2022-08-04T22:53:29.513Z,66.88
2022-08-04T22:56:07.451Z,67.13
2022-08-04T22:58:45.207Z,67.05
2022-08-04T23:01:18.063Z,67.59
2022-08-04T23:03:51.185Z,68.32
2022-08-04T23:06:24.247Z,67.48
2022-08-04T23:08:51.219Z,67.59
2022-08-04T23:11:17.758Z,67.74
2022-08-04T23:13:44.286Z,67.89
2022-08-04T23:16:10.985Z,68.04
2022-08-04T23:18:40.091Z,67.69
2022-08-04T23:21:11.026Z,68.11
2022-08-04T23:23:47.743Z,68.13
2022-08-04T23:26:27.880Z,68.43
2022-08-04T23:28:55.290Z,68.47
2022-08-04T23:31:21.726Z,68.30
2022-08-04T23:33:51.003Z,68.66
2022-08-04T23:36:19.447Z,68.44
2022-08-04T23:38:59.230Z,68.46
2022-08-04T23:41:25.758Z,68.16
2022-08-04T23:44:12.225Z,68.43
2022-08-04T23:46:44.148Z,68.51
2022-08-04T23:49:11.905Z,68.48
2022-08-04T23:51:43.346Z,68.29
2022-08-04T23:54:09.787Z,67.92
2022-08-04T23:56:37.959Z,68.17
2022-08-04T23:59:04.957Z,68.27
